sensor_id;sensor_type;location;lat;lon;timestamp;temperature;humidity
8231;DHT22;4156;50.908;6.974;2022-10-31T00:00:21;16.90;99.90
8231;DHT22;4156;50.908;6.974;2022-10-31T00:02:47;16.80;99.90
8231;DHT22;4156;50.908;6.974;2022-10-31T00:05:12;16.80;99.90
8231;DHT22;4156;50.908;6.974;2022-10-31T00:07:38;16.80;99.90
8231;DHT22;4156;50.908;6.974;2022-10-31T00:10:04;16.80;99.90
8231;DHT22;4156;50.908;6.974;2022-10-31T00:12:29;16.70;99.90
8231;DHT22;4156;50.908;6.974;2022-10-31T00:14:55;16.80;99.90
8231;DHT22;4156;50.908;6.974;2022-10-31T00:17:20;16.80;99.90
8231;DHT22;4156;50.908;6.974;2022-10-31T00:19:46;16.70;99.90
8231;DHT22;4156;50.908;6.974;2022-10-31T00:22:11;16.70;99.90
8231;DHT22;4156;50.908;6.974;2022-10-31T00:24:37;16.70;99.90
8231;DHT22;4156;50.908;6.974;2022-10-31T00:27:02;16.70;99.90
8231;DHT22;4156;50.908;6.974;2022-10-31T00:29:28;16.70;99.90
8231;DHT22;4156;50.908;6.974;2022-10-31T00:31:53;16.60;99.90
8231;DHT22;4156;50.908;6.974;2022-10-31T00:34:19;16.60;99.90
8231;DHT22;4156;50.908;6.974;2022-10-31T00:36:44;16.60;99.90
8231;DHT22;4156;50.908;6.974;2022-10-31T00:39:10;16.60;99.90
8231;DHT22;4156;50.908;6.974;2022-10-31T00:41:35;16.60;99.90
8231;DHT22;4156;50.908;6.974;2022-10-31T00:44:01;16.60;99.90
8231;DHT22;4156;50.908;6.974;2022-10-31T00:46:26;16.50;99.90
8231;DHT22;4156;50.908;6.974;2022-10-31T00:48:52;16.50;99.90
8231;DHT22;4156;50.908;6.974;2022-10-31T00:51:18;16.50;99.90
8231;DHT22;4156;50.908;6.974;2022-10-31T00:53:43;16.50;99.90
8231;DHT22;4156;50.908;6.974;2022-10-31T00:56:09;16.50;99.90
8231;DHT22;4156;50.908;6.974;2022-10-31T00:58:34;16.50;99.90
8231;DHT22;4156;50.908;6.974;2022-10-31T01:01:00;16.40;99.90
8231;DHT22;4156;50.908;6.974;2022-10-31T01:03:30;16.50;99.90
8231;DHT22;4156;50.908;6.974;2022-10-31T01:06:01;16.40;99.90
8231;DHT22;4156;50.908;6.974;2022-10-31T01:08:28;16.50;99.90
8231;DHT22;4156;50.908;6.974;2022-10-31T01:11:11;16.40;99.90
8231;DHT22;4156;50.908;6.974;2022-10-31T01:13:37;16.40;99.90
8231;DHT22;4156;50.908;6.974;2022-10-31T01:16:04;16.40;99.90
8231;DHT22;4156;50.908;6.974;2022-10-31T01:18:30;16.30;99.90
8231;DHT22;4156;50.908;6.974;2022-10-31T01:21:06;16.30;99.90
8231;DHT22;4156;50.908;6.974;2022-10-31T01:23:32;16.30;99.90
8231;DHT22;4156;50.908;6.974;2022-10-31T01:28:33;16.30;99.90
8231;DHT22;4156;50.908;6.974;2022-10-31T01:31:07;16.30;99.90
8231;DHT22;4156;50.908;6.974;2022-10-31T01:33:32;16.30;99.90
8231;DHT22;4156;50.908;6.974;2022-10-31T01:35:58;16.30;99.90
8231;DHT22;4156;50.908;6.974;2022-10-31T01:38:24;16.30;99.90
8231;DHT22;4156;50.908;6.974;2022-10-31T01:40:50;16.20;99.90
8231;DHT22;4156;50.908;6.974;2022-10-31T01:43:16;16.20;99.90
8231;DHT22;4156;50.908;6.974;2022-10-31T01:45:44;16.20;99.90
8231;DHT22;4156;50.908;6.974;2022-10-31T01:48:13;16.20;99.90
8231;DHT22;4156;50.908;6.974;2022-10-31T01:50:41;16.20;99.90
8231;DHT22;4156;50.908;6.974;2022-10-31T01:53:08;16.20;99.90
8231;DHT22;4156;50.908;6.974;2022-10-31T01:55:40;16.10;99.90
8231;DHT22;4156;50.908;6.974;2022-10-31T01:58:12;16.10;99.90
8231;DHT22;4156;50.908;6.974;2022-10-31T02:00:39;16.10;99.90
8231;DHT22;4156;50.908;6.974;2022-10-31T02:03:06;16.10;99.90
8231;DHT22;4156;50.908;6.974;2022-10-31T02:05:32;16.10;99.90
8231;DHT22;4156;50.908;6.974;2022-10-31T02:08:06;16.10;99.90
8231;DHT22;4156;50.908;6.974;2022-10-31T02:10:33;16.10;99.90
8231;DHT22;4156;50.908;6.974;2022-10-31T02:13:03;16.00;99.90
8231;DHT22;4156;50.908;6.974;2022-10-31T02:15:30;16.10;99.90
8231;DHT22;4156;50.908;6.974;2022-10-31T02:17:57;16.10;99.90
8231;DHT22;4156;50.908;6.974;2022-10-31T02:20:24;16.00;99.90
8231;DHT22;4156;50.908;6.974;2022-10-31T02:31:30;16.00;99.90
8231;DHT22;4156;50.908;6.974;2022-10-31T02:34:19;16.00;99.90
8231;DHT22;4156;50.908;6.974;2022-10-31T02:39:54;15.90;99.90
8231;DHT22;4156;50.908;6.974;2022-10-31T02:42:36;15.90;99.90
8231;DHT22;4156;50.908;6.974;2022-10-31T02:47:36;15.80;99.90
8231;DHT22;4156;50.908;6.974;2022-10-31T02:50:24;15.80;99.90
8231;DHT22;4156;50.908;6.974;2022-10-31T02:52:52;15.70;99.90
8231;DHT22;4156;50.908;6.974;2022-10-31T02:58:17;15.70;99.90
8231;DHT22;4156;50.908;6.974;2022-10-31T03:03:20;15.70;99.90
8231;DHT22;4156;50.908;6.974;2022-10-31T03:06:08;15.70;99.90
8231;DHT22;4156;50.908;6.974;2022-10-31T03:08:50;15.70;99.90
8231;DHT22;4156;50.908;6.974;2022-10-31T03:11:22;15.70;99.90
8231;DHT22;4156;50.908;6.974;2022-10-31T03:14:04;15.70;99.90
8231;DHT22;4156;50.908;6.974;2022-10-31T03:16:51;15.70;99.90
8231;DHT22;4156;50.908;6.974;2022-10-31T03:19:29;15.60;99.90
8231;DHT22;4156;50.908;6.974;2022-10-31T03:22:42;15.60;99.90
8231;DHT22;4156;50.908;6.974;2022-10-31T03:24:50;15.60;99.90
8231;DHT22;4156;50.908;6.974;2022-10-31T03:27:22;15.60;99.90
8231;DHT22;4156;50.908;6.974;2022-10-31T03:29:50;15.60;99.90
8231;DHT22;4156;50.908;6.974;2022-10-31T03:32:31;15.60;99.90
8231;DHT22;4156;50.908;6.974;2022-10-31T03:35:00;15.60;99.90
8231;DHT22;4156;50.908;6.974;2022-10-31T03:37:28;15.60;99.90
8231;DHT22;4156;50.908;6.974;2022-10-31T03:39:55;15.60;99.90
8231;DHT22;4156;50.908;6.974;2022-10-31T03:42:25;15.60;99.90
8231;DHT22;4156;50.908;6.974;2022-10-31T03:45:19;15.60;99.90
8231;DHT22;4156;50.908;6.974;2022-10-31T03:47:46;15.60;99.90
8231;DHT22;4156;50.908;6.974;2022-10-31T03:50:13;15.60;99.90
8231;DHT22;4156;50.908;6.974;2022-10-31T03:52:55;15.50;99.90
8231;DHT22;4156;50.908;6.974;2022-10-31T03:55:30;15.50;99.90
8231;DHT22;4156;50.908;6.974;2022-10-31T03:58:07;15.50;99.90
8231;DHT22;4156;50.908;6.974;2022-10-31T04:00:35;15.50;99.90
8231;DHT22;4156;50.908;6.974;2022-10-31T04:03:07;15.50;99.90
8231;DHT22;4156;50.908;6.974;2022-10-31T04:05:35;15.40;99.90
8231;DHT22;4156;50.908;6.974;2022-10-31T04:08:04;15.40;99.90
8231;DHT22;4156;50.908;6.974;2022-10-31T04:10:33;15.40;99.90
8231;DHT22;4156;50.908;6.974;2022-10-31T04:13:09;15.40;99.90
8231;DHT22;4156;50.908;6.974;2022-10-31T04:15:36;15.40;99.90
8231;DHT22;4156;50.908;6.974;2022-10-31T04:18:04;15.40;99.90
8231;DHT22;4156;50.908;6.974;2022-10-31T04:20:38;15.40;99.90
8231;DHT22;4156;50.908;6.974;2022-10-31T04:23:05;15.30;99.90
8231;DHT22;4156;50.908;6.974;2022-10-31T04:25:36;15.40;99.90
8231;DHT22;4156;50.908;6.974;2022-10-31T04:28:02;15.30;99.90
8231;DHT22;4156;50.908;6.974;2022-10-31T04:30:27;15.30;99.90
8231;DHT22;4156;50.908;6.974;2022-10-31T04:32:53;15.30;99.90
8231;DHT22;4156;50.908;6.974;2022-10-31T04:35:18;15.30;99.90
8231;DHT22;4156;50.908;6.974;2022-10-31T04:37:44;15.30;99.90
8231;DHT22;4156;50.908;6.974;2022-10-31T04:40:10;15.30;99.90
8231;DHT22;4156;50.908;6.974;2022-10-31T04:42:35;15.30;99.90
8231;DHT22;4156;50.908;6.974;2022-10-31T04:45:01;15.30;99.90
8231;DHT22;4156;50.908;6.974;2022-10-31T04:47:26;15.20;99.90
8231;DHT22;4156;50.908;6.974;2022-10-31T04:49:52;15.20;99.90
8231;DHT22;4156;50.908;6.974;2022-10-31T04:52:17;15.20;99.90
8231;DHT22;4156;50.908;6.974;2022-10-31T04:54:43;15.20;99.90
8231;DHT22;4156;50.908;6.974;2022-10-31T04:57:08;15.20;99.90
8231;DHT22;4156;50.908;6.974;2022-10-31T04:59:34;15.10;99.90
8231;DHT22;4156;50.908;6.974;2022-10-31T05:01:59;15.10;99.90
8231;DHT22;4156;50.908;6.974;2022-10-31T05:04:25;15.10;99.90
8231;DHT22;4156;50.908;6.974;2022-10-31T05:06:50;15.10;99.90
8231;DHT22;4156;50.908;6.974;2022-10-31T05:09:16;15.10;99.90
8231;DHT22;4156;50.908;6.974;2022-10-31T05:11:41;15.10;99.90
8231;DHT22;4156;50.908;6.974;2022-10-31T05:14:07;15.10;99.90
8231;DHT22;4156;50.908;6.974;2022-10-31T05:16:32;15.10;99.90
8231;DHT22;4156;50.908;6.974;2022-10-31T05:18:58;15.00;99.90
8231;DHT22;4156;50.908;6.974;2022-10-31T05:21:23;15.00;99.90
8231;DHT22;4156;50.908;6.974;2022-10-31T05:23:49;15.00;99.90
8231;DHT22;4156;50.908;6.974;2022-10-31T05:26:15;15.00;99.90
8231;DHT22;4156;50.908;6.974;2022-10-31T05:28:40;15.00;99.90
8231;DHT22;4156;50.908;6.974;2022-10-31T05:31:06;15.00;99.90
8231;DHT22;4156;50.908;6.974;2022-10-31T05:33:31;15.00;99.90
8231;DHT22;4156;50.908;6.974;2022-10-31T05:35:56;15.00;99.90
8231;DHT22;4156;50.908;6.974;2022-10-31T05:38:22;15.00;99.90
8231;DHT22;4156;50.908;6.974;2022-10-31T05:40:47;14.90;99.90
8231;DHT22;4156;50.908;6.974;2022-10-31T05:43:13;14.90;99.90
8231;DHT22;4156;50.908;6.974;2022-10-31T05:45:38;14.90;99.90
8231;DHT22;4156;50.908;6.974;2022-10-31T05:48:04;14.90;99.90
8231;DHT22;4156;50.908;6.974;2022-10-31T05:50:31;14.90;99.90
8231;DHT22;4156;50.908;6.974;2022-10-31T05:52:58;14.90;99.90
8231;DHT22;4156;50.908;6.974;2022-10-31T05:55:24;14.80;99.90
8231;DHT22;4156;50.908;6.974;2022-10-31T05:57:51;14.80;99.90
8231;DHT22;4156;50.908;6.974;2022-10-31T06:00:18;14.80;99.90
8231;DHT22;4156;50.908;6.974;2022-10-31T06:02:43;14.80;99.90
8231;DHT22;4156;50.908;6.974;2022-10-31T06:05:09;14.80;99.90
8231;DHT22;4156;50.908;6.974;2022-10-31T06:07:35;14.80;99.90
8231;DHT22;4156;50.908;6.974;2022-10-31T06:10:02;14.80;99.90
8231;DHT22;4156;50.908;6.974;2022-10-31T06:12:28;14.80;99.90
8231;DHT22;4156;50.908;6.974;2022-10-31T06:14:54;14.80;99.90
8231;DHT22;4156;50.908;6.974;2022-10-31T06:17:19;14.80;99.90
8231;DHT22;4156;50.908;6.974;2022-10-31T06:19:45;14.80;99.90
8231;DHT22;4156;50.908;6.974;2022-10-31T06:22:10;14.80;99.90
8231;DHT22;4156;50.908;6.974;2022-10-31T06:24:38;14.80;99.90
8231;DHT22;4156;50.908;6.974;2022-10-31T06:27:05;14.80;99.90
8231;DHT22;4156;50.908;6.974;2022-10-31T06:29:31;14.80;99.90
8231;DHT22;4156;50.908;6.974;2022-10-31T06:31:56;14.80;99.90
8231;DHT22;4156;50.908;6.974;2022-10-31T06:34:22;14.80;99.90
8231;DHT22;4156;50.908;6.974;2022-10-31T06:36:47;14.80;99.90
8231;DHT22;4156;50.908;6.974;2022-10-31T06:39:13;14.80;99.90
8231;DHT22;4156;50.908;6.974;2022-10-31T06:41:39;14.80;99.90
8231;DHT22;4156;50.908;6.974;2022-10-31T06:44:07;14.80;99.90
8231;DHT22;4156;50.908;6.974;2022-10-31T06:46:33;14.70;99.90
8231;DHT22;4156;50.908;6.974;2022-10-31T06:48:59;14.70;99.90
8231;DHT22;4156;50.908;6.974;2022-10-31T06:51:24;14.70;99.90
8231;DHT22;4156;50.908;6.974;2022-10-31T06:53:50;14.70;99.90
8231;DHT22;4156;50.908;6.974;2022-10-31T06:56:15;14.70;99.90
8231;DHT22;4156;50.908;6.974;2022-10-31T06:58:41;15.50;99.90
8231;DHT22;4156;50.908;6.974;2022-10-31T07:01:07;14.60;99.90
8231;DHT22;4156;50.908;6.974;2022-10-31T07:03:32;14.60;99.90
8231;DHT22;4156;50.908;6.974;2022-10-31T07:05:58;14.60;99.90
8231;DHT22;4156;50.908;6.974;2022-10-31T07:08:24;14.70;99.90
8231;DHT22;4156;50.908;6.974;2022-10-31T07:10:55;14.60;99.90
8231;DHT22;4156;50.908;6.974;2022-10-31T07:13:21;14.60;99.90
8231;DHT22;4156;50.908;6.974;2022-10-31T07:15:51;14.60;99.90
8231;DHT22;4156;50.908;6.974;2022-10-31T07:18:17;14.60;99.90
8231;DHT22;4156;50.908;6.974;2022-10-31T07:20:43;14.60;99.90
8231;DHT22;4156;50.908;6.974;2022-10-31T07:23:12;14.60;99.90
8231;DHT22;4156;50.908;6.974;2022-10-31T07:25:40;14.60;99.90
8231;DHT22;4156;50.908;6.974;2022-10-31T07:28:06;14.60;99.90
8231;DHT22;4156;50.908;6.974;2022-10-31T07:30:32;14.60;99.90
8231;DHT22;4156;50.908;6.974;2022-10-31T07:32:58;14.60;99.90
8231;DHT22;4156;50.908;6.974;2022-10-31T07:35:26;14.50;99.90
8231;DHT22;4156;50.908;6.974;2022-10-31T07:37:52;14.50;99.90
8231;DHT22;4156;50.908;6.974;2022-10-31T07:40:18;14.60;99.90
8231;DHT22;4156;50.908;6.974;2022-10-31T07:42:46;14.60;99.90
8231;DHT22;4156;50.908;6.974;2022-10-31T07:45:17;14.60;99.90
8231;DHT22;4156;50.908;6.974;2022-10-31T07:47:48;14.50;99.90
8231;DHT22;4156;50.908;6.974;2022-10-31T07:50:17;14.60;99.90
8231;DHT22;4156;50.908;6.974;2022-10-31T07:52:43;14.70;99.90
8231;DHT22;4156;50.908;6.974;2022-10-31T07:55:10;14.70;99.90
8231;DHT22;4156;50.908;6.974;2022-10-31T07:57:36;14.70;99.90
8231;DHT22;4156;50.908;6.974;2022-10-31T08:00:09;14.70;99.90
8231;DHT22;4156;50.908;6.974;2022-10-31T08:02:35;14.70;99.90
8231;DHT22;4156;50.908;6.974;2022-10-31T08:05:00;14.70;99.90
8231;DHT22;4156;50.908;6.974;2022-10-31T08:07:27;14.80;99.90
8231;DHT22;4156;50.908;6.974;2022-10-31T08:09:54;14.70;99.90
8231;DHT22;4156;50.908;6.974;2022-10-31T08:12:20;14.70;99.90
8231;DHT22;4156;50.908;6.974;2022-10-31T08:14:46;14.70;99.90
8231;DHT22;4156;50.908;6.974;2022-10-31T08:17:11;14.70;99.90
8231;DHT22;4156;50.908;6.974;2022-10-31T08:19:37;14.70;99.90
8231;DHT22;4156;50.908;6.974;2022-10-31T08:22:02;14.70;99.90
8231;DHT22;4156;50.908;6.974;2022-10-31T08:24:28;14.70;99.90
8231;DHT22;4156;50.908;6.974;2022-10-31T08:26:53;14.70;99.90
8231;DHT22;4156;50.908;6.974;2022-10-31T08:29:19;14.70;99.90
8231;DHT22;4156;50.908;6.974;2022-10-31T08:31:45;14.70;99.90
8231;DHT22;4156;50.908;6.974;2022-10-31T08:34:10;14.70;99.90
8231;DHT22;4156;50.908;6.974;2022-10-31T08:36:36;14.70;99.90
8231;DHT22;4156;50.908;6.974;2022-10-31T08:39:01;14.70;99.90
8231;DHT22;4156;50.908;6.974;2022-10-31T08:41:27;14.70;99.90
8231;DHT22;4156;50.908;6.974;2022-10-31T08:43:52;14.70;99.90
8231;DHT22;4156;50.908;6.974;2022-10-31T08:46:18;14.70;99.90
8231;DHT22;4156;50.908;6.974;2022-10-31T08:48:43;14.70;99.90
8231;DHT22;4156;50.908;6.974;2022-10-31T08:51:10;14.70;99.90
8231;DHT22;4156;50.908;6.974;2022-10-31T08:53:37;14.70;99.90
8231;DHT22;4156;50.908;6.974;2022-10-31T08:56:02;14.70;99.90
8231;DHT22;4156;50.908;6.974;2022-10-31T08:58:28;14.70;99.90
8231;DHT22;4156;50.908;6.974;2022-10-31T09:00:54;14.70;99.90
8231;DHT22;4156;50.908;6.974;2022-10-31T09:03:24;14.70;99.90
8231;DHT22;4156;50.908;6.974;2022-10-31T09:05:53;15.00;99.90
8231;DHT22;4156;50.908;6.974;2022-10-31T09:08:19;14.70;99.90
8231;DHT22;4156;50.908;6.974;2022-10-31T09:10:44;14.70;99.90
8231;DHT22;4156;50.908;6.974;2022-10-31T09:13:13;14.80;99.90
8231;DHT22;4156;50.908;6.974;2022-10-31T09:15:41;14.80;99.90
8231;DHT22;4156;50.908;6.974;2022-10-31T09:18:07;14.80;99.90
8231;DHT22;4156;50.908;6.974;2022-10-31T09:20:34;14.80;99.90
8231;DHT22;4156;50.908;6.974;2022-10-31T09:23:02;14.80;99.90
8231;DHT22;4156;50.908;6.974;2022-10-31T09:25:28;14.80;99.90
8231;DHT22;4156;50.908;6.974;2022-10-31T09:27:58;14.90;99.90
8231;DHT22;4156;50.908;6.974;2022-10-31T09:30:25;14.90;99.90
8231;DHT22;4156;50.908;6.974;2022-10-31T09:33:02;14.90;99.90
8231;DHT22;4156;50.908;6.974;2022-10-31T09:35:28;14.90;99.90
8231;DHT22;4156;50.908;6.974;2022-10-31T09:38:00;14.90;99.90
8231;DHT22;4156;50.908;6.974;2022-10-31T09:40:43;14.90;99.90
8231;DHT22;4156;50.908;6.974;2022-10-31T09:46:10;15.00;99.90
8231;DHT22;4156;50.908;6.974;2022-10-31T09:51:38;15.20;99.90
8231;DHT22;4156;50.908;6.974;2022-10-31T09:54:16;15.00;99.90
8231;DHT22;4156;50.908;6.974;2022-10-31T09:56:43;15.10;99.90
8231;DHT22;4156;50.908;6.974;2022-10-31T09:59:23;15.10;99.90
8231;DHT22;4156;50.908;6.974;2022-10-31T10:04:33;15.20;99.90
8231;DHT22;4156;50.908;6.974;2022-10-31T10:07:05;15.20;99.90
8231;DHT22;4156;50.908;6.974;2022-10-31T10:09:33;15.20;99.90
8231;DHT22;4156;50.908;6.974;2022-10-31T10:12:08;15.20;99.90
8231;DHT22;4156;50.908;6.974;2022-10-31T10:14:41;15.30;99.90
8231;DHT22;4156;50.908;6.974;2022-10-31T10:22:56;15.40;99.90
8231;DHT22;4156;50.908;6.974;2022-10-31T10:25:34;15.40;99.90
8231;DHT22;4156;50.908;6.974;2022-10-31T10:28:19;15.40;99.90
8231;DHT22;4156;50.908;6.974;2022-10-31T10:30:50;15.50;99.90
8231;DHT22;4156;50.908;6.974;2022-10-31T10:33:32;15.50;99.90
8231;DHT22;4156;50.908;6.974;2022-10-31T10:36:01;15.50;99.90
8231;DHT22;4156;50.908;6.974;2022-10-31T10:41:10;15.50;99.90
8231;DHT22;4156;50.908;6.974;2022-10-31T10:43:38;15.60;99.90
8231;DHT22;4156;50.908;6.974;2022-10-31T10:46:42;15.60;99.90
8231;DHT22;4156;50.908;6.974;2022-10-31T10:49:35;15.60;99.90
8231;DHT22;4156;50.908;6.974;2022-10-31T10:52:24;15.60;99.90
8231;DHT22;4156;50.908;6.974;2022-10-31T10:55:17;15.60;99.90
8231;DHT22;4156;50.908;6.974;2022-10-31T10:58:03;15.70;99.90
8231;DHT22;4156;50.908;6.974;2022-10-31T11:00:35;15.70;99.90
8231;DHT22;4156;50.908;6.974;2022-10-31T11:03:01;15.70;99.90
8231;DHT22;4156;50.908;6.974;2022-10-31T11:05:43;15.70;99.90
8231;DHT22;4156;50.908;6.974;2022-10-31T11:08:10;15.80;99.90
8231;DHT22;4156;50.908;6.974;2022-10-31T11:10:36;15.80;99.90
8231;DHT22;4156;50.908;6.974;2022-10-31T11:15:35;15.80;99.90
8231;DHT22;4156;50.908;6.974;2022-10-31T11:18:02;15.80;99.90
8231;DHT22;4156;50.908;6.974;2022-10-31T11:20:32;15.90;99.90
8231;DHT22;4156;50.908;6.974;2022-10-31T11:23:19;15.90;99.90
8231;DHT22;4156;50.908;6.974;2022-10-31T11:26:05;15.90;99.90
8231;DHT22;4156;50.908;6.974;2022-10-31T11:28:32;15.90;99.90
8231;DHT22;4156;50.908;6.974;2022-10-31T11:31:05;16.00;99.90
8231;DHT22;4156;50.908;6.974;2022-10-31T11:33:34;16.00;99.90
8231;DHT22;4156;50.908;6.974;2022-10-31T11:36:03;16.00;99.90
8231;DHT22;4156;50.908;6.974;2022-10-31T11:38:34;16.00;99.90
8231;DHT22;4156;50.908;6.974;2022-10-31T11:41:12;16.10;99.90
8231;DHT22;4156;50.908;6.974;2022-10-31T11:43:39;16.00;99.90
8231;DHT22;4156;50.908;6.974;2022-10-31T11:46:10;16.00;99.90
8231;DHT22;4156;50.908;6.974;2022-10-31T11:48:36;16.10;99.90
8231;DHT22;4156;50.908;6.974;2022-10-31T11:51:03;16.10;99.90
8231;DHT22;4156;50.908;6.974;2022-10-31T11:53:33;16.10;99.90
8231;DHT22;4156;50.908;6.974;2022-10-31T11:58:30;16.20;99.90
8231;DHT22;4156;50.908;6.974;2022-10-31T12:00:57;16.20;99.90
8231;DHT22;4156;50.908;6.974;2022-10-31T12:08:33;16.30;99.90
8231;DHT22;4156;50.908;6.974;2022-10-31T12:11:32;16.30;99.90
8231;DHT22;4156;50.908;6.974;2022-10-31T12:16:32;16.30;99.90
8231;DHT22;4156;50.908;6.974;2022-10-31T12:22:04;16.40;99.90
8231;DHT22;4156;50.908;6.974;2022-10-31T12:24:59;16.40;99.90
8231;DHT22;4156;50.908;6.974;2022-10-31T12:30:46;16.40;99.90
8231;DHT22;4156;50.908;6.974;2022-10-31T12:33:21;16.40;99.90
8231;DHT22;4156;50.908;6.974;2022-10-31T12:41:20;16.50;99.90
8231;DHT22;4156;50.908;6.974;2022-10-31T12:44:13;16.50;99.90
8231;DHT22;4156;50.908;6.974;2022-10-31T12:47:13;16.50;99.90
8231;DHT22;4156;50.908;6.974;2022-10-31T12:49:48;16.50;99.90
8231;DHT22;4156;50.908;6.974;2022-10-31T12:55:23;16.50;99.90
8231;DHT22;4156;50.908;6.974;2022-10-31T12:57:56;16.50;99.90
8231;DHT22;4156;50.908;6.974;2022-10-31T13:00:24;16.60;99.90
8231;DHT22;4156;50.908;6.974;2022-10-31T13:02:56;16.60;99.90
8231;DHT22;4156;50.908;6.974;2022-10-31T13:05:27;16.60;99.90
8231;DHT22;4156;50.908;6.974;2022-10-31T13:08:08;16.60;99.90
8231;DHT22;4156;50.908;6.974;2022-10-31T13:13:30;16.70;99.90
8231;DHT22;4156;50.908;6.974;2022-10-31T13:16:01;16.70;99.90
8231;DHT22;4156;50.908;6.974;2022-10-31T13:18:48;16.70;99.90
8231;DHT22;4156;50.908;6.974;2022-10-31T13:21:21;16.70;99.90
8231;DHT22;4156;50.908;6.974;2022-10-31T13:23:50;16.70;99.90
8231;DHT22;4156;50.908;6.974;2022-10-31T13:26:43;16.80;99.90
8231;DHT22;4156;50.908;6.974;2022-10-31T13:29:24;16.80;99.90
8231;DHT22;4156;50.908;6.974;2022-10-31T13:31:50;16.80;99.90
8231;DHT22;4156;50.908;6.974;2022-10-31T13:42:54;16.90;99.90
8231;DHT22;4156;50.908;6.974;2022-10-31T13:45:23;16.90;99.90
8231;DHT22;4156;50.908;6.974;2022-10-31T13:50:31;16.90;99.90
8231;DHT22;4156;50.908;6.974;2022-10-31T13:53:43;17.00;99.90
8231;DHT22;4156;50.908;6.974;2022-10-31T13:58:34;17.00;99.90
8231;DHT22;4156;50.908;6.974;2022-10-31T14:03:37;17.00;99.90
8231;DHT22;4156;50.908;6.974;2022-10-31T14:06:04;17.00;99.90
8231;DHT22;4156;50.908;6.974;2022-10-31T14:08:34;17.00;99.90
8231;DHT22;4156;50.908;6.974;2022-10-31T14:11:00;17.00;99.90
8231;DHT22;4156;50.908;6.974;2022-10-31T14:13:29;17.00;99.90
8231;DHT22;4156;50.908;6.974;2022-10-31T14:16:05;17.00;99.90
8231;DHT22;4156;50.908;6.974;2022-10-31T14:18:40;17.10;99.90
8231;DHT22;4156;50.908;6.974;2022-10-31T14:23:51;17.10;99.90
8231;DHT22;4156;50.908;6.974;2022-10-31T14:28:46;17.10;99.90
8231;DHT22;4156;50.908;6.974;2022-10-31T14:31:38;17.10;99.90
8231;DHT22;4156;50.908;6.974;2022-10-31T14:34:24;17.10;99.90
8231;DHT22;4156;50.908;6.974;2022-10-31T14:40:00;17.20;99.90
8231;DHT22;4156;50.908;6.974;2022-10-31T14:45:25;17.20;99.90
8231;DHT22;4156;50.908;6.974;2022-10-31T14:50:57;17.20;99.90
8231;DHT22;4156;50.908;6.974;2022-10-31T14:53:27;17.30;99.90
8231;DHT22;4156;50.908;6.974;2022-10-31T14:55:55;17.30;99.90
8231;DHT22;4156;50.908;6.974;2022-10-31T14:58:32;17.30;99.90
8231;DHT22;4156;50.908;6.974;2022-10-31T15:00:59;17.30;99.90
8231;DHT22;4156;50.908;6.974;2022-10-31T15:03:32;17.30;99.90
8231;DHT22;4156;50.908;6.974;2022-10-31T15:06:02;17.30;99.90
8231;DHT22;4156;50.908;6.974;2022-10-31T15:08:35;17.30;99.90
8231;DHT22;4156;50.908;6.974;2022-10-31T15:11:10;17.30;99.90
8231;DHT22;4156;50.908;6.974;2022-10-31T15:14:14;17.30;99.90
8231;DHT22;4156;50.908;6.974;2022-10-31T15:16:31;17.40;99.90
8231;DHT22;4156;50.908;6.974;2022-10-31T15:19:05;17.40;99.90
8231;DHT22;4156;50.908;6.974;2022-10-31T15:21:33;17.40;99.90
8231;DHT22;4156;50.908;6.974;2022-10-31T15:24:01;17.40;99.90
8231;DHT22;4156;50.908;6.974;2022-10-31T15:26:38;17.40;99.90
8231;DHT22;4156;50.908;6.974;2022-10-31T15:29:12;17.40;99.90
8231;DHT22;4156;50.908;6.974;2022-10-31T15:31:38;17.40;99.90
8231;DHT22;4156;50.908;6.974;2022-10-31T15:34:13;17.40;99.90
8231;DHT22;4156;50.908;6.974;2022-10-31T15:36:41;17.40;99.90
8231;DHT22;4156;50.908;6.974;2022-10-31T15:39:13;17.50;99.90
8231;DHT22;4156;50.908;6.974;2022-10-31T15:41:54;17.50;99.90
8231;DHT22;4156;50.908;6.974;2022-10-31T15:44:28;17.50;99.90
8231;DHT22;4156;50.908;6.974;2022-10-31T15:47:05;17.50;99.90
8231;DHT22;4156;50.908;6.974;2022-10-31T15:49:47;17.50;99.90
8231;DHT22;4156;50.908;6.974;2022-10-31T15:52:25;17.50;99.90
8231;DHT22;4156;50.908;6.974;2022-10-31T15:54:55;17.50;99.90
8231;DHT22;4156;50.908;6.974;2022-10-31T15:57:23;17.50;99.90
8231;DHT22;4156;50.908;6.974;2022-10-31T15:59:52;17.50;99.90
8231;DHT22;4156;50.908;6.974;2022-10-31T16:02:21;17.60;99.90
8231;DHT22;4156;50.908;6.974;2022-10-31T16:04:49;17.60;99.90
8231;DHT22;4156;50.908;6.974;2022-10-31T16:07:17;17.50;99.90
8231;DHT22;4156;50.908;6.974;2022-10-31T16:09:59;17.60;99.90
8231;DHT22;4156;50.908;6.974;2022-10-31T16:12:35;17.60;99.90
8231;DHT22;4156;50.908;6.974;2022-10-31T16:15:02;17.60;99.90
8231;DHT22;4156;50.908;6.974;2022-10-31T16:17:29;17.60;99.90
8231;DHT22;4156;50.908;6.974;2022-10-31T16:20:00;17.60;99.90
8231;DHT22;4156;50.908;6.974;2022-10-31T16:22:32;17.60;99.90
8231;DHT22;4156;50.908;6.974;2022-10-31T16:25:09;17.60;99.90
8231;DHT22;4156;50.908;6.974;2022-10-31T16:27:36;17.60;99.90
8231;DHT22;4156;50.908;6.974;2022-10-31T16:30:44;17.60;99.90
8231;DHT22;4156;50.908;6.974;2022-10-31T16:33:29;17.50;99.90
8231;DHT22;4156;50.908;6.974;2022-10-31T16:35:57;17.60;99.90
8231;DHT22;4156;50.908;6.974;2022-10-31T16:38:23;17.60;99.90
8231;DHT22;4156;50.908;6.974;2022-10-31T16:40:49;17.60;99.90
8231;DHT22;4156;50.908;6.974;2022-10-31T16:43:17;17.60;99.90
8231;DHT22;4156;50.908;6.974;2022-10-31T16:45:47;17.60;99.90
8231;DHT22;4156;50.908;6.974;2022-10-31T16:48:15;17.60;99.90
8231;DHT22;4156;50.908;6.974;2022-10-31T16:50:43;17.60;99.90
8231;DHT22;4156;50.908;6.974;2022-10-31T16:53:09;17.60;99.90
8231;DHT22;4156;50.908;6.974;2022-10-31T16:56:00;17.60;99.90
8231;DHT22;4156;50.908;6.974;2022-10-31T16:58:32;17.60;99.90
8231;DHT22;4156;50.908;6.974;2022-10-31T17:00:59;17.60;99.90
8231;DHT22;4156;50.908;6.974;2022-10-31T17:03:25;17.60;99.90
8231;DHT22;4156;50.908;6.974;2022-10-31T17:05:51;17.60;99.90
8231;DHT22;4156;50.908;6.974;2022-10-31T17:08:16;17.60;99.90
8231;DHT22;4156;50.908;6.974;2022-10-31T17:10:43;17.60;99.90
8231;DHT22;4156;50.908;6.974;2022-10-31T17:13:16;17.60;99.90
8231;DHT22;4156;50.908;6.974;2022-10-31T17:15:46;17.60;99.90
8231;DHT22;4156;50.908;6.974;2022-10-31T17:18:14;17.60;99.90
8231;DHT22;4156;50.908;6.974;2022-10-31T17:20:40;17.60;99.90
8231;DHT22;4156;50.908;6.974;2022-10-31T17:23:06;17.60;99.90
8231;DHT22;4156;50.908;6.974;2022-10-31T17:25:31;17.60;99.90
8231;DHT22;4156;50.908;6.974;2022-10-31T17:27:57;17.70;99.90
8231;DHT22;4156;50.908;6.974;2022-10-31T17:30:24;17.60;99.90
8231;DHT22;4156;50.908;6.974;2022-10-31T17:32:50;17.70;99.90
8231;DHT22;4156;50.908;6.974;2022-10-31T17:35:17;17.70;99.90
8231;DHT22;4156;50.908;6.974;2022-10-31T17:37:43;17.70;99.90
8231;DHT22;4156;50.908;6.974;2022-10-31T17:40:11;17.70;99.90
8231;DHT22;4156;50.908;6.974;2022-10-31T17:42:37;17.70;99.90
8231;DHT22;4156;50.908;6.974;2022-10-31T17:45:04;17.70;99.90
8231;DHT22;4156;50.908;6.974;2022-10-31T17:47:30;17.70;99.90
8231;DHT22;4156;50.908;6.974;2022-10-31T17:49:55;17.70;99.90
8231;DHT22;4156;50.908;6.974;2022-10-31T17:52:21;17.70;99.90
8231;DHT22;4156;50.908;6.974;2022-10-31T17:54:46;17.70;99.90
8231;DHT22;4156;50.908;6.974;2022-10-31T17:57:12;17.70;99.90
8231;DHT22;4156;50.908;6.974;2022-10-31T17:59:38;17.70;99.90